createdAt,value
2024-03-22T00:00:52.065Z,95992.00
2024-03-22T00:01:52.132Z,95991.00
2024-03-22T00:02:52.170Z,95985.00
2024-03-22T00:03:52.228Z,95987.00
2024-03-22T00:04:52.285Z,95988.00
2024-03-22T00:58:05.495Z,95968.00
2024-03-22T00:58:53.882Z,95968.00
2024-03-22T00:59:53.906Z,95966.00
2024-03-22T01:00:53.944Z,95969.00
2024-03-22T01:01:53.979Z,95969.00
2024-03-22T01:02:54.012Z,95967.00
2024-03-22T01:03:54.055Z,95969.00
2024-03-22T01:04:54.100Z,95968.00
2024-03-22T01:05:54.134Z,95966.00
2024-03-22T01:06:54.177Z,95965.00
2024-03-22T01:07:54.207Z,95966.00
2024-03-22T01:08:54.256Z,95966.00
2024-03-22T01:09:54.283Z,95965.00
2024-03-22T01:10:54.330Z,95968.00
2024-03-22T01:12:05.459Z,95969.00
2024-03-22T01:13:06.438Z,95970.00
2024-03-22T01:14:06.474Z,95971.00
2024-03-22T01:15:06.438Z,95970.00
2024-03-22T01:16:06.426Z,95967.00
2024-03-22T01:17:06.432Z,95964.00
2024-03-22T01:18:06.424Z,95962.00
2024-03-22T01:19:06.444Z,95961.00
2024-03-22T01:20:06.411Z,95960.00
2024-03-22T01:21:06.417Z,95961.00
2024-03-22T01:22:06.429Z,95962.00
2024-03-22T01:23:06.427Z,95963.00
2024-03-22T01:24:06.428Z,95965.00
2024-03-22T01:25:06.429Z,95967.00
2024-03-22T01:26:06.422Z,95969.00
2024-03-22T01:27:06.425Z,95969.00
2024-03-22T01:28:06.440Z,95968.00
2024-03-22T01:29:06.412Z,95965.00
2024-03-22T01:30:06.424Z,95965.00
2024-03-22T01:31:06.429Z,95965.00
2024-03-22T01:32:06.403Z,95963.00
2024-03-22T01:33:06.404Z,95960.00
2024-03-22T01:34:06.415Z,95959.00
2024-03-22T01:35:06.389Z,95958.00
2024-03-22T01:36:06.397Z,95957.00
2024-03-22T01:37:06.385Z,95957.00
2024-03-22T01:38:06.384Z,95957.00
2024-03-22T01:39:06.368Z,95958.00
2024-03-22T01:40:06.378Z,95955.00
2024-03-22T01:41:06.351Z,95955.00
2024-03-22T01:42:06.340Z,95952.00
2024-03-22T01:43:06.333Z,95952.00
2024-03-22T01:44:06.323Z,95952.00
2024-03-22T01:45:06.308Z,95949.00
2024-03-22T01:46:06.324Z,95949.00
2024-03-22T01:47:06.340Z,95950.00
2024-03-22T01:48:06.393Z,95949.00
2024-03-22T01:49:06.436Z,95946.00
2024-03-22T01:50:06.518Z,95944.00
2024-03-22T01:51:06.553Z,95943.00
2024-03-22T01:52:06.615Z,95944.00
2024-03-22T01:53:06.663Z,95943.00
2024-03-22T01:54:06.704Z,95942.00
2024-03-22T01:55:06.760Z,95938.00
2024-03-22T01:56:06.805Z,95939.00
2024-03-22T01:57:06.875Z,95937.00
2024-03-22T01:58:06.914Z,95937.00
2024-03-22T01:59:06.968Z,95938.00
2024-03-22T02:00:07.023Z,95936.00
2024-03-22T02:01:07.089Z,95933.00
2024-03-22T02:02:07.119Z,95933.00
2024-03-22T02:03:07.136Z,95935.00
2024-03-22T02:04:07.187Z,95935.00
2024-03-22T02:05:07.243Z,95936.00
2024-03-22T02:06:07.311Z,95933.00
2024-03-22T02:07:07.367Z,95932.00
2024-03-22T02:08:07.434Z,95928.00
2024-03-22T02:09:07.493Z,95923.00
2024-03-22T02:10:07.559Z,95920.00
2024-03-22T02:11:07.627Z,95917.00
2024-03-22T02:12:07.661Z,95917.00
2024-03-22T02:13:07.727Z,95918.00
2024-03-22T02:14:07.787Z,95915.00
2024-03-22T02:15:07.798Z,95915.00
2024-03-22T02:16:07.814Z,95914.00
2024-03-22T02:17:08.689Z,95915.00
2024-03-22T02:18:07.867Z,95916.00
2024-03-22T02:19:07.870Z,95914.00
2024-03-22T02:20:07.939Z,95913.00
2024-03-22T02:21:08.000Z,95911.00
2024-03-22T02:22:08.080Z,95908.00
2024-03-22T02:23:08.111Z,95906.00
2024-03-22T02:24:08.134Z,95905.00
2024-03-22T02:25:08.143Z,95904.00
2024-03-22T02:26:08.174Z,95902.00
2024-03-22T02:27:10.640Z,95903.00
2024-03-22T02:28:08.188Z,95902.00
2024-03-22T02:29:08.194Z,95904.00
2024-03-22T02:30:08.193Z,95904.00
2024-03-22T02:31:08.199Z,95900.00
2024-03-22T02:32:08.183Z,95900.00
2024-03-22T02:33:08.184Z,95898.00
2024-03-22T02:34:08.181Z,95897.00
2024-03-22T02:35:08.178Z,95896.00
2024-03-22T02:36:08.183Z,95895.00
2024-03-22T02:37:08.167Z,95893.00
2024-03-22T02:38:08.181Z,95892.00
2024-03-22T02:39:08.184Z,95890.00
2024-03-22T02:40:08.176Z,95890.00
2024-03-22T02:41:08.165Z,95889.00
2024-03-22T02:42:08.171Z,95887.00
2024-03-22T02:43:08.177Z,95885.00
2024-03-22T02:44:08.186Z,95884.00
2024-03-22T02:45:08.197Z,95884.00
2024-03-22T02:46:08.208Z,95881.00
2024-03-22T02:47:08.183Z,95879.00
2024-03-22T02:48:08.178Z,95880.00
2024-03-22T02:49:08.168Z,95879.00
2024-03-22T02:50:08.180Z,95880.00
2024-03-22T02:51:08.159Z,95879.00
2024-03-22T02:52:08.141Z,95879.00
2024-03-22T02:53:08.156Z,95879.00
2024-03-22T02:54:08.131Z,95880.00
2024-03-22T02:55:08.188Z,95880.00
2024-03-22T02:56:08.121Z,95880.00
2024-03-22T02:57:08.119Z,95880.00
2024-03-22T02:58:08.132Z,95879.00
2024-03-22T02:59:08.116Z,95879.00
2024-03-22T03:00:08.124Z,95879.00
2024-03-22T03:01:08.120Z,95880.00
2024-03-22T03:02:08.094Z,95880.00
2024-03-22T03:03:08.101Z,95883.00
2024-03-22T03:04:08.077Z,95882.00
2024-03-22T03:05:08.062Z,95882.00
2024-03-22T03:06:08.092Z,95881.00
2024-03-22T03:07:08.134Z,95878.00
2024-03-22T03:08:08.172Z,95875.00
2024-03-22T03:09:08.219Z,95874.00
2024-03-22T03:10:08.297Z,95874.00
2024-03-22T03:11:08.380Z,95873.00
2024-03-22T03:12:10.400Z,95871.00
2024-03-22T03:13:08.436Z,95870.00
2024-03-22T03:14:08.410Z,95869.00
2024-03-22T03:15:08.398Z,95870.00
2024-03-22T03:16:08.389Z,95869.00
2024-03-22T03:17:08.400Z,95867.00
2024-03-22T03:18:08.402Z,95865.00
2024-03-22T03:19:08.374Z,95865.00
2024-03-22T03:20:08.350Z,95868.00
2024-03-22T03:21:08.359Z,95867.00
2024-03-22T03:22:08.392Z,95866.00
2024-03-22T03:23:08.360Z,95865.00
2024-03-22T03:24:08.344Z,95866.00
2024-03-22T03:25:08.408Z,95864.00
2024-03-22T03:26:08.474Z,95864.00
2024-03-22T03:27:08.542Z,95864.00
2024-03-22T03:28:08.595Z,95864.00
2024-03-22T03:29:08.661Z,95868.00
2024-03-22T03:30:08.730Z,95870.00
2024-03-22T03:31:08.776Z,95869.00
2024-03-22T03:32:08.825Z,95871.00
2024-03-22T03:33:08.903Z,95871.00
2024-03-22T03:34:08.944Z,95870.00
2024-03-22T03:35:09.021Z,95870.00
2024-03-22T03:36:09.090Z,95869.00
2024-03-22T03:37:09.136Z,95871.00
2024-03-22T03:38:09.215Z,95870.00
2024-03-22T03:39:09.271Z,95871.00
2024-03-22T03:40:09.397Z,95867.00
2024-03-22T03:41:09.380Z,95866.00
2024-03-22T03:42:09.412Z,95871.00
2024-03-22T03:43:09.554Z,95871.00
2024-03-22T03:44:09.540Z,95871.00
2024-03-22T03:45:09.605Z,95871.00
2024-03-22T03:46:09.661Z,95872.00
2024-03-22T03:47:09.729Z,95874.00
2024-03-22T03:48:09.799Z,95869.00
2024-03-22T03:49:09.860Z,95868.00
2024-03-22T03:50:09.948Z,95865.00
2024-03-22T03:51:09.995Z,95864.00
2024-03-22T03:52:10.072Z,95864.00
2024-03-22T03:53:10.121Z,95866.00
2024-03-22T03:54:10.193Z,95863.00
2024-03-22T03:55:10.211Z,95862.00
2024-03-22T03:56:10.280Z,95858.00
2024-03-22T03:57:10.315Z,95859.00
2024-03-22T03:58:10.395Z,95860.00
2024-03-22T03:59:10.422Z,95857.00
2024-03-22T04:00:10.494Z,95855.00
2024-03-22T04:01:10.506Z,95852.00
2024-03-22T04:02:10.538Z,95850.00
2024-03-22T04:03:10.567Z,95852.00
2024-03-22T04:04:10.559Z,95851.00
2024-03-22T04:05:10.590Z,95849.00
2024-03-22T04:06:10.635Z,95849.00
2024-03-22T04:07:10.707Z,95847.00
2024-03-22T04:08:10.731Z,95843.00
2024-03-22T04:09:10.762Z,95841.00
2024-03-22T04:10:10.841Z,95839.00
2024-03-22T04:11:10.865Z,95842.00
2024-03-22T04:12:10.929Z,95842.00
2024-03-22T04:13:10.998Z,95845.00
2024-03-22T04:14:11.046Z,95845.00
2024-03-22T04:15:11.112Z,95847.00
2024-03-22T04:16:11.244Z,95847.00
2024-03-22T04:17:11.266Z,95846.00
2024-03-22T04:18:11.328Z,95847.00
2024-03-22T04:19:11.391Z,95846.00
2024-03-22T04:20:11.469Z,95843.00
2024-03-22T04:21:11.519Z,95847.00
2024-03-22T04:22:11.598Z,95846.00
2024-03-22T04:23:11.643Z,95847.00
2024-03-22T04:24:11.715Z,95847.00
2024-03-22T04:25:11.774Z,95848.00
2024-03-22T04:26:11.823Z,95850.00
2024-03-22T04:27:11.854Z,95851.00
2024-03-22T04:28:11.902Z,95848.00
2024-03-22T04:29:11.943Z,95851.00
2024-03-22T04:30:11.998Z,95850.00
2024-03-22T04:31:12.056Z,95850.00
2024-03-22T04:32:12.113Z,95849.00
2024-03-22T04:33:12.156Z,95851.00
2024-03-22T04:34:12.219Z,95850.00
2024-03-22T04:35:12.279Z,95852.00
2024-03-22T04:36:12.350Z,95854.00
2024-03-22T04:37:19.723Z,95854.00
2024-03-22T04:38:20.741Z,95855.00
2024-03-22T04:39:20.764Z,95858.00
2024-03-22T04:40:20.806Z,95855.00
2024-03-22T04:41:20.852Z,95858.00
2024-03-22T04:42:20.852Z,95860.00
2024-03-22T04:43:20.880Z,95861.00
2024-03-22T04:44:20.923Z,95861.00
2024-03-22T04:45:20.949Z,95865.00
2024-03-22T04:46:20.990Z,95860.00
2024-03-22T04:47:21.024Z,95859.00
2024-03-22T04:48:21.040Z,95859.00
2024-03-22T04:49:21.079Z,95859.00
2024-03-22T04:50:21.095Z,95859.00
2024-03-22T04:51:21.136Z,95857.00
2024-03-22T04:52:21.174Z,95857.00
2024-03-22T04:53:21.193Z,95859.00
2024-03-22T04:54:21.238Z,95858.00
2024-03-22T04:55:21.282Z,95857.00
2024-03-22T04:56:21.297Z,95860.00
2024-03-22T04:57:21.352Z,95861.00
2024-03-22T04:58:39.194Z,95864.00
2024-03-22T04:59:40.183Z,95866.00
2024-03-22T05:00:40.197Z,95867.00
2024-03-22T05:01:40.210Z,95867.00
2024-03-22T05:02:40.222Z,95870.00
2024-03-22T05:03:40.239Z,95867.00
2024-03-22T05:04:40.243Z,95870.00
2024-03-22T05:05:40.256Z,95870.00
2024-03-22T05:06:40.259Z,95874.00
2024-03-22T05:07:40.270Z,95874.00
2024-03-22T05:08:40.352Z,95875.00
2024-03-22T05:09:40.317Z,95873.00
2024-03-22T05:10:40.324Z,95873.00
2024-03-22T05:11:40.332Z,95872.00
2024-03-22T05:12:40.369Z,95871.00
2024-03-22T05:13:40.372Z,95872.00
2024-03-22T05:14:40.397Z,95870.00
2024-03-22T05:15:40.389Z,95871.00
2024-03-22T05:16:40.398Z,95869.00
2024-03-22T05:17:40.401Z,95865.00
2024-03-22T05:18:40.425Z,95864.00
2024-03-22T05:19:40.434Z,95863.00
2024-03-22T05:20:40.488Z,95862.00
2024-03-22T05:21:40.467Z,95863.00
2024-03-22T05:22:40.492Z,95863.00
2024-03-22T05:23:40.529Z,95861.00
2024-03-22T05:24:40.589Z,95862.00
2024-03-22T05:25:40.694Z,95864.00
2024-03-22T05:26:40.739Z,95861.00
2024-03-22T05:27:40.816Z,95861.00
2024-03-22T05:28:40.881Z,95862.00
2024-03-22T05:29:41.044Z,95860.00
2024-03-22T05:30:41.022Z,95858.00
2024-03-22T05:31:41.101Z,95858.00
2024-03-22T05:32:41.234Z,95861.00
2024-03-22T05:33:41.829Z,95863.00
2024-03-22T05:34:41.350Z,95864.00
2024-03-22T05:35:41.420Z,95861.00
2024-03-22T05:36:41.484Z,95864.00
2024-03-22T05:37:41.564Z,95863.00
2024-03-22T05:38:41.609Z,95862.00
2024-03-22T05:39:41.692Z,95862.00
2024-03-22T05:40:41.719Z,95861.00
2024-03-22T05:41:41.811Z,95862.00
2024-03-22T05:42:41.835Z,95860.00
2024-03-22T05:43:41.899Z,95861.00
2024-03-22T05:44:42.030Z,95861.00
2024-03-22T05:45:42.055Z,95859.00
2024-03-22T05:46:42.129Z,95859.00
2024-03-22T05:47:42.235Z,95858.00
2024-03-22T05:48:42.307Z,95856.00
2024-03-22T05:49:42.405Z,95855.00
2024-03-22T05:50:42.521Z,95857.00
2024-03-22T05:51:42.643Z,95854.00
2024-03-22T05:52:42.687Z,95855.00
2024-03-22T05:53:42.832Z,95856.00
2024-03-22T05:54:42.852Z,95855.00
2024-03-22T05:55:42.942Z,95854.00
2024-03-22T05:56:43.028Z,95854.00
2024-03-22T05:57:43.096Z,95855.00
2024-03-22T05:58:43.188Z,95855.00
2024-03-22T05:59:43.257Z,95858.00
2024-03-22T06:00:43.561Z,95857.00
2024-03-22T06:01:43.399Z,95860.00
2024-03-22T06:02:43.466Z,95857.00
2024-03-22T06:03:43.512Z,95857.00
2024-03-22T06:04:45.986Z,95857.00
2024-03-22T06:05:43.620Z,95857.00
2024-03-22T06:06:43.612Z,95853.00
2024-03-22T06:07:43.649Z,95853.00
2024-03-22T06:08:43.671Z,95852.00
2024-03-22T06:09:43.668Z,95852.00
2024-03-22T06:10:43.671Z,95848.00
2024-03-22T06:11:43.705Z,95846.00
2024-03-22T06:12:43.710Z,95847.00
2024-03-22T06:13:43.734Z,95848.00
2024-03-22T06:14:43.777Z,95845.00
2024-03-22T06:15:43.762Z,95844.00
2024-03-22T06:16:43.779Z,95844.00
2024-03-22T06:17:43.779Z,95842.00
2024-03-22T06:18:43.782Z,95841.00
2024-03-22T06:19:43.817Z,95840.00
2024-03-22T06:20:43.830Z,95841.00
2024-03-22T06:21:43.858Z,95840.00
2024-03-22T06:22:43.832Z,95840.00
2024-03-22T06:23:43.927Z,95839.00
2024-03-22T06:24:43.908Z,95838.00
2024-03-22T06:25:43.887Z,95838.00
2024-03-22T06:26:46.072Z,95840.00
2024-03-22T06:27:45.732Z,95837.00
2024-03-22T06:28:43.940Z,95832.00
2024-03-22T06:29:43.961Z,95836.00
2024-03-22T06:30:43.943Z,95834.00
2024-03-22T06:31:43.953Z,95831.00
2024-03-22T06:32:44.346Z,95830.00
2024-03-22T06:33:44.009Z,95827.00
2024-03-22T06:34:44.017Z,95827.00
2024-03-22T06:35:44.015Z,95826.00
2024-03-22T06:36:44.317Z,95827.00
2024-03-22T06:37:44.055Z,95824.00
2024-03-22T06:38:44.059Z,95822.00
2024-03-22T06:39:44.082Z,95821.00
2024-03-22T06:40:44.073Z,95821.00
2024-03-22T06:41:44.129Z,95820.00
2024-03-22T06:42:44.107Z,95820.00
2024-03-22T06:43:44.108Z,95819.00
2024-03-22T06:44:44.123Z,95818.00
2024-03-22T06:45:44.146Z,95816.00
2024-03-22T06:46:44.157Z,95815.00
2024-03-22T06:47:44.414Z,95815.00
2024-03-22T06:48:44.205Z,95816.00
2024-03-22T06:49:44.190Z,95811.00
2024-03-22T06:50:44.219Z,95813.00
2024-03-22T06:51:44.236Z,95811.00
2024-03-22T06:52:44.330Z,95808.00
2024-03-22T06:53:44.275Z,95809.00
2024-03-22T06:54:44.270Z,95803.00
2024-03-22T06:55:44.329Z,95800.00
2024-03-22T06:56:44.378Z,95799.00
2024-03-22T06:57:44.832Z,95797.00
2024-03-22T06:58:44.486Z,95795.00
2024-03-22T06:59:47.759Z,95797.00
2024-03-22T07:00:44.554Z,95797.00
2024-03-22T07:01:44.546Z,95796.00
2024-03-22T07:02:44.834Z,95795.00
2024-03-22T07:03:45.030Z,95792.00
2024-03-22T07:04:44.859Z,95795.00
2024-03-22T07:05:44.562Z,95792.00
2024-03-22T07:06:44.832Z,95791.00
2024-03-22T07:07:44.554Z,95791.00
2024-03-22T07:08:44.623Z,95791.00
2024-03-22T07:09:44.890Z,95790.00
2024-03-22T07:10:44.574Z,95787.00
2024-03-22T07:11:45.074Z,95787.00
2024-03-22T07:12:44.659Z,95785.00
2024-03-22T07:13:44.590Z,95788.00
2024-03-22T07:14:44.630Z,95788.00
2024-03-22T07:15:44.646Z,95787.00
2024-03-22T07:16:44.826Z,95786.00
2024-03-22T07:17:44.778Z,95787.00
2024-03-22T07:18:44.867Z,95784.00
2024-03-22T07:19:44.680Z,95785.00
2024-03-22T07:20:44.907Z,95783.00
2024-03-22T07:21:44.859Z,95781.00
2024-03-22T07:22:44.772Z,95782.00
2024-03-22T07:23:44.735Z,95778.00
2024-03-22T07:24:44.753Z,95779.00
2024-03-22T07:25:44.803Z,95775.00
2024-03-22T07:26:44.828Z,95773.00
2024-03-22T07:27:44.855Z,95771.00
2024-03-22T07:28:45.220Z,95769.00
2024-03-22T07:29:45.184Z,95771.00
2024-03-22T07:30:45.034Z,95766.00
2024-03-22T07:31:45.916Z,95766.00
2024-03-22T07:32:45.639Z,95769.00
2024-03-22T07:33:45.509Z,95769.00
2024-03-22T07:34:45.501Z,95771.00
2024-03-22T07:35:45.542Z,95766.00
2024-03-22T07:36:45.876Z,95769.00
2024-03-22T07:37:45.630Z,95768.00
2024-03-22T07:38:45.687Z,95767.00
2024-03-22T07:39:45.256Z,95764.00
2024-03-22T07:40:45.318Z,95764.00
2024-03-22T07:41:45.994Z,95765.00
2024-03-22T07:42:45.526Z,95766.00
2024-03-22T07:43:45.573Z,95767.00
2024-03-22T07:44:45.899Z,95764.00
2024-03-22T07:45:46.072Z,95762.00
2024-03-22T07:46:46.097Z,95761.00
2024-03-22T07:47:45.622Z,95765.00
2024-03-22T07:48:45.607Z,95767.00
2024-03-22T07:49:45.604Z,95768.00
2024-03-22T07:50:45.638Z,95765.00
2024-03-22T07:51:45.843Z,95765.00
2024-03-22T07:52:45.901Z,95766.00
2024-03-22T07:53:45.832Z,95764.00
2024-03-22T07:54:45.768Z,95761.00
2024-03-22T07:55:45.866Z,95761.00
2024-03-22T07:56:46.000Z,95759.00
2024-03-22T07:57:46.265Z,95758.00
2024-03-22T07:58:45.920Z,95758.00
2024-03-22T07:59:45.992Z,95759.00
2024-03-22T08:00:45.992Z,95754.00
2024-03-22T08:01:46.403Z,95755.00
2024-03-22T08:02:46.003Z,95755.00
2024-03-22T08:03:46.437Z,95752.00
2024-03-22T08:04:46.422Z,95750.00
2024-03-22T08:05:46.887Z,95750.00
2024-03-22T08:06:46.913Z,95746.00
2024-03-22T08:07:46.345Z,95746.00
2024-03-22T08:08:46.168Z,95743.00
2024-03-22T08:09:46.222Z,95741.00
2024-03-22T08:10:46.277Z,95741.00
2024-03-22T08:11:46.229Z,95741.00
2024-03-22T08:12:46.294Z,95743.00
2024-03-22T08:13:46.324Z,95742.00
2024-03-22T08:14:46.356Z,95739.00
2024-03-22T08:15:46.394Z,95737.00
2024-03-22T08:16:46.399Z,95734.00
2024-03-22T08:17:46.434Z,95731.00
2024-03-22T08:18:46.440Z,95730.00
2024-03-22T08:19:46.458Z,95724.00
2024-03-22T08:20:46.709Z,95728.00
2024-03-22T08:21:46.584Z,95725.00
2024-03-22T08:22:46.605Z,95722.00
2024-03-22T08:23:46.914Z,95723.00
2024-03-22T08:24:46.852Z,95723.00
2024-03-22T08:25:46.735Z,95720.00
2024-03-22T08:26:46.725Z,95724.00
2024-03-22T08:27:59.707Z,95719.00
2024-03-22T08:28:47.119Z,95719.00
2024-03-22T08:29:47.853Z,95719.00
2024-03-22T08:30:46.702Z,95717.00
2024-03-22T08:31:46.859Z,95717.00
2024-03-22T08:32:46.599Z,95715.00
2024-03-22T08:33:46.861Z,95714.00
2024-03-22T08:34:46.629Z,95711.00
2024-03-22T08:35:46.880Z,95713.00
2024-03-22T08:36:46.540Z,95709.00
2024-03-22T08:37:46.530Z,95714.00
2024-03-22T08:38:46.528Z,95713.00
2024-03-22T08:39:46.561Z,95711.00
2024-03-22T08:40:46.501Z,95710.00
2024-03-22T08:41:47.010Z,95704.00
2024-03-22T08:42:46.459Z,95701.00
2024-03-22T08:43:45.856Z,95704.00
2024-03-22T08:44:46.769Z,95703.00
2024-03-22T08:45:46.435Z,95698.00
2024-03-22T08:46:46.899Z,95695.00
2024-03-22T08:47:46.429Z,95691.00
2024-03-22T08:48:46.409Z,95694.00
2024-03-22T08:49:46.898Z,95695.00
2024-03-22T08:50:46.428Z,95694.00
2024-03-22T08:51:46.454Z,95692.00
2024-03-22T08:52:46.463Z,95691.00
2024-03-22T08:53:46.610Z,95689.00
2024-03-22T08:54:46.852Z,95685.00
2024-03-22T08:55:46.520Z,95686.00
2024-03-22T08:56:46.884Z,95681.00
2024-03-22T08:57:54.238Z,95681.00
2024-03-22T08:58:46.547Z,95681.00
2024-03-22T08:59:46.890Z,95677.00
2024-03-22T09:00:46.498Z,95680.00
2024-03-22T09:01:46.507Z,95675.00
2024-03-22T09:02:46.482Z,95677.00
2024-03-22T09:03:46.481Z,95673.00
2024-03-22T09:04:46.885Z,95671.00
2024-03-22T09:05:53.009Z,95668.00
2024-03-22T09:06:46.402Z,95669.00
2024-03-22T09:07:47.350Z,95665.00
2024-03-22T09:08:46.536Z,95659.00
2024-03-22T09:09:46.867Z,95659.00
2024-03-22T09:10:46.628Z,95657.00
2024-03-22T09:11:46.556Z,95655.00
2024-03-22T09:12:46.584Z,95655.00
2024-03-22T09:13:46.561Z,95650.00
2024-03-22T09:14:46.860Z,95648.00
2024-03-22T09:15:46.925Z,95645.00
2024-03-22T09:16:46.565Z,95645.00
2024-03-22T09:17:46.862Z,95636.00
2024-03-22T09:18:46.521Z,95636.00
2024-03-22T09:19:46.519Z,95637.00
2024-03-22T09:20:46.559Z,95635.00
2024-03-22T09:21:46.565Z,95635.00
2024-03-22T09:22:47.854Z,95634.00
2024-03-22T09:23:46.632Z,95633.00
2024-03-22T09:24:46.541Z,95630.00
2024-03-22T09:25:48.409Z,95631.00
2024-03-22T09:26:46.867Z,95630.00
2024-03-22T09:27:46.903Z,95629.00
2024-03-22T09:28:46.893Z,95628.00
2024-03-22T09:29:46.445Z,95624.00
2024-03-22T09:30:56.463Z,95623.00
2024-03-22T09:31:46.630Z,95622.00
2024-03-22T09:32:46.361Z,95621.00
2024-03-22T09:33:46.336Z,95619.00
2024-03-22T09:34:46.297Z,95620.00
2024-03-22T09:35:46.311Z,95618.00
2024-03-22T09:36:46.230Z,95617.00
2024-03-22T09:37:46.361Z,95615.00
2024-03-22T09:38:46.146Z,95608.00
2024-03-22T09:39:46.172Z,95608.00
2024-03-22T09:40:46.150Z,95606.00
2024-03-22T09:41:49.040Z,95604.00
2024-03-22T09:42:46.369Z,95602.00
2024-03-22T09:43:46.002Z,95599.00
2024-03-22T09:44:49.194Z,95598.00
2024-03-22T09:45:45.915Z,95596.00
2024-03-22T09:46:45.891Z,95596.00
2024-03-22T09:47:45.882Z,95591.00
2024-03-22T09:48:45.818Z,95590.00
2024-03-22T09:49:45.822Z,95589.00
2024-03-22T09:50:45.778Z,95586.00
2024-03-22T09:51:45.697Z,95583.00
2024-03-22T09:52:45.878Z,95582.00
2024-03-22T09:53:47.096Z,95577.00
2024-03-22T09:54:45.568Z,95576.00
2024-03-22T09:55:45.529Z,95574.00
2024-03-22T09:56:45.493Z,95570.00
2024-03-22T09:57:45.462Z,95571.00
2024-03-22T09:58:45.397Z,95569.00
2024-03-22T09:59:46.338Z,95565.00
2024-03-22T10:00:45.408Z,95567.00
2024-03-22T10:01:45.352Z,95568.00
2024-03-22T10:02:45.378Z,95566.00
2024-03-22T10:03:45.181Z,95562.00
2024-03-22T10:04:45.158Z,95561.00
2024-03-22T10:05:46.798Z,95558.00
2024-03-22T10:06:45.078Z,95554.00
2024-03-22T10:07:45.381Z,95556.00
2024-03-22T10:08:45.034Z,95552.00
2024-03-22T10:09:45.039Z,95552.00
2024-03-22T10:10:44.976Z,95554.00
2024-03-22T10:11:46.605Z,95549.00
2024-03-22T10:12:46.395Z,95549.00
2024-03-22T10:13:45.008Z,95551.00
2024-03-22T10:14:45.404Z,95547.00
2024-03-22T10:15:45.087Z,95544.00
2024-03-22T10:16:45.111Z,95542.00
2024-03-22T10:17:45.109Z,95541.00
2024-03-22T10:18:45.376Z,95539.00
2024-03-22T10:19:45.079Z,95537.00
2024-03-22T10:20:45.027Z,95537.00
2024-03-22T10:21:46.003Z,95534.00
2024-03-22T10:22:45.516Z,95536.00
2024-03-22T10:23:44.920Z,95535.00
2024-03-22T10:24:44.895Z,95532.00
2024-03-22T10:25:44.837Z,95529.00
2024-03-22T10:26:44.852Z,95529.00
2024-03-22T10:27:44.834Z,95524.00
2024-03-22T10:28:44.976Z,95525.00
2024-03-22T10:29:46.452Z,95522.00
2024-03-22T10:30:44.759Z,95517.00
2024-03-22T10:31:44.731Z,95518.00
2024-03-22T10:32:45.002Z,95517.00
2024-03-22T10:33:44.710Z,95513.00
2024-03-22T10:34:44.949Z,95511.00
2024-03-22T10:35:44.597Z,95510.00
2024-03-22T10:36:44.482Z,95506.00
2024-03-22T10:37:47.900Z,95507.00
2024-03-22T10:38:44.407Z,95502.00
2024-03-22T10:39:44.356Z,95500.00
2024-03-22T10:40:44.369Z,95500.00
2024-03-22T10:41:44.980Z,95495.00
2024-03-22T10:42:44.457Z,95495.00
2024-03-22T10:43:45.843Z,95491.00
2024-03-22T10:44:44.432Z,95493.00
2024-03-22T10:45:44.178Z,95491.00
2024-03-22T10:46:44.012Z,95487.00
2024-03-22T10:47:44.033Z,95486.00
2024-03-22T10:48:43.942Z,95484.00
2024-03-22T10:49:44.662Z,95482.00
2024-03-22T10:50:43.837Z,95481.00
2024-03-22T10:51:43.794Z,95478.00
2024-03-22T10:52:43.717Z,95481.00
2024-03-22T10:53:43.669Z,95474.00
2024-03-22T10:54:43.930Z,95475.00
2024-03-22T10:55:43.619Z,95473.00
2024-03-22T10:56:43.564Z,95472.00
2024-03-22T10:57:44.461Z,95466.00
2024-03-22T10:58:43.504Z,95466.00
2024-03-22T10:59:43.384Z,95466.00
2024-03-22T11:00:45.242Z,95462.00
2024-03-22T11:01:43.257Z,95458.00
2024-03-22T11:02:43.247Z,95455.00
2024-03-22T11:03:43.256Z,95454.00
2024-03-22T11:04:43.449Z,95449.00
2024-03-22T11:05:43.135Z,95448.00
2024-03-22T11:06:43.005Z,95448.00
2024-03-22T11:07:42.960Z,95448.00
2024-03-22T11:08:42.884Z,95446.00
2024-03-22T11:09:42.891Z,95445.00
2024-03-22T11:10:42.801Z,95443.00
2024-03-22T11:11:42.709Z,95442.00
2024-03-22T11:12:44.167Z,95437.00
2024-03-22T11:13:42.901Z,95438.00
2024-03-22T11:14:42.901Z,95433.00
2024-03-22T11:15:41.738Z,95429.00
2024-03-22T11:16:42.786Z,95431.00
2024-03-22T11:17:42.724Z,95429.00
2024-03-22T11:18:42.694Z,95425.00
2024-03-22T11:19:43.008Z,95423.00
2024-03-22T11:20:44.556Z,95423.00
2024-03-22T11:21:42.679Z,95422.00
2024-03-22T11:22:42.862Z,95420.00
2024-03-22T11:23:42.612Z,95418.00
2024-03-22T11:24:42.449Z,95417.00
2024-03-22T11:25:43.031Z,95416.00
2024-03-22T11:26:44.688Z,95413.00
2024-03-22T11:27:42.279Z,95413.00
2024-03-22T11:28:42.275Z,95408.00
2024-03-22T11:29:42.146Z,95406.00
2024-03-22T11:30:42.410Z,95406.00
2024-03-22T11:31:42.029Z,95405.00
2024-03-22T11:32:41.979Z,95405.00
2024-03-22T11:33:41.866Z,95402.00
2024-03-22T11:34:42.052Z,95401.00
2024-03-22T11:35:41.760Z,95400.00
2024-03-22T11:36:41.736Z,95399.00
2024-03-22T11:37:41.604Z,95393.00
2024-03-22T11:38:41.582Z,95394.00
2024-03-22T11:39:41.461Z,95394.00
2024-03-22T11:40:43.301Z,95389.00
2024-03-22T11:41:41.312Z,95387.00
2024-03-22T11:42:41.991Z,95388.00
2024-03-22T11:43:41.593Z,95388.00
2024-03-22T11:44:41.622Z,95383.00
2024-03-22T11:45:40.714Z,95386.00
2024-03-22T11:46:41.342Z,95383.00
2024-03-22T11:47:41.683Z,95378.00
2024-03-22T11:48:41.215Z,95377.00
2024-03-22T11:49:41.343Z,95377.00
2024-03-22T11:50:41.081Z,95375.00
2024-03-22T11:51:40.946Z,95375.00
2024-03-22T11:52:41.030Z,95372.00
2024-03-22T11:53:40.880Z,95371.00
2024-03-22T11:54:40.762Z,95367.00
2024-03-22T11:55:40.893Z,95366.00
2024-03-22T11:56:41.618Z,95364.00
2024-03-22T11:57:40.043Z,95363.00
2024-03-22T11:58:39.951Z,95357.00
2024-03-22T11:59:39.856Z,95359.00
2024-03-22T12:01:03.021Z,95356.00
2024-03-22T12:01:39.794Z,95354.00
2024-03-22T12:02:39.640Z,95351.00
2024-03-22T12:03:39.602Z,95351.00
2024-03-22T12:04:40.465Z,95347.00
2024-03-22T12:05:39.975Z,95344.00
2024-03-22T12:06:39.345Z,95341.00
2024-03-22T12:07:39.245Z,95342.00
2024-03-22T12:08:39.162Z,95336.00
2024-03-22T12:09:39.070Z,95333.00
2024-03-22T12:10:39.408Z,95333.00
2024-03-22T12:11:38.942Z,95330.00
2024-03-22T12:12:38.797Z,95328.00
2024-03-22T12:13:38.731Z,95328.00
2024-03-22T12:14:38.713Z,95325.00
2024-03-22T12:15:38.691Z,95323.00
2024-03-22T12:16:38.643Z,95320.00
2024-03-22T12:17:38.616Z,95319.00
2024-03-22T12:18:38.583Z,95316.00
2024-03-22T12:19:38.612Z,95315.00
2024-03-22T12:20:39.218Z,95312.00
2024-03-22T12:21:38.472Z,95311.00
2024-03-22T12:22:38.916Z,95307.00
2024-03-22T12:23:38.429Z,95303.00
2024-03-22T12:24:38.413Z,95303.00
2024-03-22T12:25:38.373Z,95299.00
2024-03-22T12:26:38.423Z,95298.00
2024-03-22T12:27:39.798Z,95294.00
2024-03-22T12:28:38.161Z,95294.00
2024-03-22T12:29:38.111Z,95295.00
2024-03-22T12:31:09.843Z,95289.00
2024-03-22T12:31:37.955Z,95291.00
2024-03-22T12:32:37.884Z,95289.00
2024-03-22T12:33:37.915Z,95289.00
2024-03-22T12:34:37.689Z,95287.00
2024-03-22T12:35:37.612Z,95284.00
2024-03-22T12:36:37.518Z,95285.00
2024-03-22T12:37:37.952Z,95285.00